createdAt,value
2022-12-26T00:00:43.165Z,1.02
2022-12-26T00:01:49.639Z,1.04
2022-12-26T00:02:52.894Z,1.15
2022-12-26T00:03:57.612Z,1.24
2022-12-26T00:05:00.229Z,1.32
2022-12-26T00:06:02.984Z,1.43
2022-12-26T00:07:04.982Z,1.52
2022-12-26T00:08:08.070Z,1.63
2022-12-26T00:09:11.171Z,1.68
2022-12-26T00:10:14.745Z,1.75
2022-12-26T00:11:17.769Z,1.84
2022-12-26T00:12:19.906Z,1.80
2022-12-26T00:13:37.224Z,1.85
2022-12-26T00:14:27.835Z,1.82
2022-12-26T00:15:30.015Z,1.71
2022-12-26T00:16:33.352Z,1.67
2022-12-26T00:17:35.941Z,1.60
2022-12-26T00:18:39.202Z,1.60
2022-12-26T00:19:41.408Z,1.51
2022-12-26T00:20:43.822Z,1.34
2022-12-26T00:21:45.970Z,1.18
2022-12-26T00:22:48.054Z,1.02
2022-12-26T00:23:50.489Z,0.85
2022-12-26T00:24:52.606Z,0.87
2022-12-26T00:25:54.996Z,1.00
2022-12-26T00:26:57.427Z,1.07
2022-12-26T00:27:59.466Z,1.17
2022-12-26T00:29:02.272Z,1.28
2022-12-26T00:30:05.794Z,1.11
2022-12-26T00:31:11.393Z,1.10
2022-12-26T00:32:13.606Z,1.19
2022-12-26T00:33:15.715Z,1.35
2022-12-26T00:34:18.143Z,1.50
2022-12-26T00:35:20.159Z,1.58
2022-12-26T00:36:29.065Z,1.65
2022-12-26T00:37:31.244Z,1.70
2022-12-26T00:38:35.559Z,1.77
2022-12-26T00:39:37.731Z,1.81
2022-12-26T00:40:42.116Z,1.89
2022-12-26T00:41:44.344Z,1.99
2022-12-26T00:42:46.593Z,1.98
2022-12-26T00:43:49.721Z,2.05
2022-12-26T00:44:51.854Z,2.07
2022-12-26T00:45:54.252Z,2.13
2022-12-26T00:46:56.602Z,2.20
2022-12-26T00:48:00.941Z,2.27
2022-12-26T00:49:04.211Z,2.34
2022-12-26T00:50:12.759Z,2.39
2022-12-26T00:51:14.354Z,2.46
2022-12-26T00:52:16.512Z,2.58
2022-12-26T00:53:19.041Z,2.60
2022-12-26T00:54:21.048Z,2.60
2022-12-26T00:55:22.892Z,2.63
2022-12-26T00:56:25.094Z,2.60
2022-12-26T00:57:27.187Z,2.60
2022-12-26T00:58:29.836Z,2.63
2022-12-26T00:59:31.921Z,2.66
2022-12-26T01:00:36.641Z,2.66
2022-12-26T01:01:40.366Z,2.66
2022-12-26T01:02:43.398Z,2.65
2022-12-26T01:03:48.052Z,2.47
2022-12-26T01:04:51.457Z,2.15
2022-12-26T01:05:53.609Z,2.02
2022-12-26T01:06:57.186Z,1.97
2022-12-26T01:08:21.776Z,1.50
2022-12-26T01:09:03.624Z,1.44
2022-12-26T01:10:12.087Z,1.50
2022-12-26T01:11:19.833Z,1.35
2022-12-26T01:12:21.856Z,1.33
2022-12-26T01:13:23.950Z,1.24
2022-12-26T01:14:26.391Z,1.20
2022-12-26T01:15:28.572Z,1.19
2022-12-26T01:16:31.019Z,0.86
2022-12-26T01:17:34.149Z,0.91
2022-12-26T01:18:36.404Z,0.85
2022-12-26T01:19:39.650Z,0.85
2022-12-26T01:20:43.353Z,0.76
2022-12-26T01:21:46.428Z,0.65
2022-12-26T01:22:48.866Z,0.51
2022-12-26T01:23:51.695Z,0.42
2022-12-26T01:24:56.269Z,0.29
2022-12-26T01:26:17.049Z,0.29
2022-12-26T01:27:02.591Z,0.13
2022-12-26T01:28:05.725Z,0.06
2022-12-26T01:29:09.373Z,0.01
2022-12-26T01:30:12.186Z,0.00
2022-12-26T01:31:14.824Z,-0.04
2022-12-26T01:32:17.062Z,-0.03
2022-12-26T01:33:19.021Z,-0.03
2022-12-26T01:34:21.624Z,0.06
2022-12-26T01:35:24.025Z,0.21
2022-12-26T01:36:26.224Z,0.36
2022-12-26T01:37:30.430Z,0.49
2022-12-26T01:38:33.567Z,0.65
2022-12-26T01:39:35.827Z,0.81
2022-12-26T01:40:41.764Z,0.86
2022-12-26T01:41:44.000Z,0.55
2022-12-26T01:42:45.989Z,0.33
2022-12-26T01:43:59.284Z,0.38
2022-12-26T01:45:05.071Z,0.38
2022-12-26T01:46:08.289Z,0.45
2022-12-26T01:47:11.920Z,0.53
2022-12-26T01:48:26.076Z,0.65
2022-12-26T01:49:37.879Z,0.61
2022-12-26T01:50:47.045Z,0.58
2022-12-26T01:51:53.380Z,0.58
2022-12-26T01:52:59.842Z,0.57
2022-12-26T01:54:38.310Z,0.66
2022-12-26T01:55:12.711Z,0.69
2022-12-26T01:56:22.839Z,0.75
2022-12-26T01:57:29.669Z,0.84
2022-12-26T01:58:35.731Z,0.84
2022-12-26T01:59:42.049Z,0.92
2022-12-26T02:00:45.329Z,0.98
2022-12-26T02:01:51.230Z,1.03
2022-12-26T02:03:13.059Z,0.89
2022-12-26T02:04:37.213Z,0.95
2022-12-26T02:05:44.204Z,0.98
2022-12-26T02:06:47.237Z,0.77
2022-12-26T02:07:49.351Z,0.71
2022-12-26T02:08:52.580Z,0.75
2022-12-26T02:09:55.285Z,0.79
2022-12-26T02:11:10.708Z,0.85
2022-12-26T02:12:34.589Z,0.90
2022-12-26T02:13:29.914Z,0.98
2022-12-26T02:14:34.190Z,1.01
2022-12-26T02:15:36.406Z,1.03
2022-12-26T02:16:40.653Z,1.15
2022-12-26T02:17:43.692Z,1.29
2022-12-26T02:18:45.947Z,1.34
2022-12-26T02:19:55.018Z,1.21
2022-12-26T02:21:13.285Z,0.83
2022-12-26T02:22:43.038Z,0.79
2022-12-26T02:24:01.228Z,0.76
2022-12-26T02:25:13.316Z,0.71
2022-12-26T02:26:46.917Z,0.81
2022-12-26T02:28:04.269Z,0.72
2022-12-26T02:29:37.750Z,0.68
2022-12-26T02:30:47.134Z,0.73
2022-12-26T02:32:20.316Z,0.81
2022-12-26T02:33:38.413Z,0.90
2022-12-26T02:34:47.439Z,0.88
2022-12-26T02:35:53.371Z,0.95
2022-12-26T02:36:59.712Z,1.04
2022-12-26T02:38:10.942Z,1.03
2022-12-26T02:39:44.238Z,1.10
2022-12-26T02:40:42.552Z,1.21
2022-12-26T02:42:26.085Z,1.18
2022-12-26T02:43:34.857Z,1.10
2022-12-26T02:45:01.871Z,1.09
2022-12-26T02:46:38.320Z,1.16
2022-12-26T02:47:57.427Z,1.20
2022-12-26T02:49:21.232Z,1.22
2022-12-26T02:50:52.183Z,1.22
2022-12-26T02:52:22.233Z,1.28
2022-12-26T02:54:07.734Z,1.40
2022-12-26T02:55:32.203Z,1.55
2022-12-26T02:57:00.047Z,1.62
2022-12-26T02:58:37.170Z,1.49
2022-12-26T03:00:16.870Z,1.54
2022-12-26T03:01:41.347Z,1.59
2022-12-26T03:03:23.355Z,1.51
2022-12-26T03:04:47.948Z,1.58
2022-12-26T03:06:29.322Z,1.54
2022-12-26T03:07:53.698Z,1.27
2022-12-26T03:09:21.173Z,1.16
2022-12-26T03:10:45.612Z,1.11
2022-12-26T03:12:11.097Z,1.17
2022-12-26T03:13:29.272Z,1.10
2022-12-26T03:14:48.118Z,1.14
2022-12-26T03:16:12.421Z,1.23
2022-12-26T03:18:57.912Z,1.50
2022-12-26T03:19:59.845Z,1.37
2022-12-26T03:21:03.477Z,1.31
2022-12-26T03:22:09.912Z,1.19
2022-12-26T03:23:15.597Z,1.15
2022-12-26T03:24:17.647Z,1.19
2022-12-26T03:26:05.268Z,1.18
2022-12-26T03:27:07.485Z,1.23
2022-12-26T03:28:09.782Z,1.21
2022-12-26T03:29:38.504Z,1.30
2022-12-26T03:30:51.301Z,1.34
2022-12-26T03:31:54.544Z,1.26
2022-12-26T03:32:57.466Z,1.31
2022-12-26T03:34:18.657Z,1.39
2022-12-26T03:35:22.687Z,1.43
2022-12-26T03:36:31.496Z,1.50
2022-12-26T03:37:49.150Z,1.50
2022-12-26T03:38:49.738Z,1.58
2022-12-26T03:40:26.673Z,1.65
2022-12-26T03:41:51.351Z,1.64
2022-12-26T03:43:28.676Z,1.54
2022-12-26T03:45:02.688Z,1.51
2022-12-26T03:46:42.469Z,1.43
2022-12-26T03:48:15.956Z,1.39
2022-12-26T03:49:39.117Z,1.38
2022-12-26T03:51:03.449Z,1.24
2022-12-26T03:52:35.953Z,1.29
2022-12-26T03:54:00.508Z,1.29
2022-12-26T03:55:24.796Z,1.26
2022-12-26T03:57:01.671Z,1.25
2022-12-26T03:58:44.595Z,1.15
2022-12-26T04:00:20.409Z,1.09
2022-12-26T04:01:45.878Z,1.23
2022-12-26T04:03:10.411Z,1.26
2022-12-26T04:04:33.452Z,1.33
2022-12-26T04:05:57.487Z,1.39
2022-12-26T04:07:28.081Z,1.37
2022-12-26T04:08:55.347Z,1.34
2022-12-26T04:10:29.157Z,1.37
2022-12-26T04:11:52.716Z,1.38
2022-12-26T04:13:16.130Z,1.34
2022-12-26T04:14:59.265Z,1.33
2022-12-26T04:16:23.818Z,1.06
2022-12-26T04:17:57.277Z,0.94
2022-12-26T04:19:29.135Z,1.00
2022-12-26T04:20:52.808Z,0.89
2022-12-26T04:22:24.542Z,0.78
2022-12-26T04:24:07.445Z,0.86
2022-12-26T04:25:49.940Z,0.87
2022-12-26T04:27:05.125Z,0.88
2022-12-26T04:28:26.040Z,1.02
2022-12-26T04:29:47.955Z,1.16
2022-12-26T04:31:21.188Z,1.23
2022-12-26T04:32:54.867Z,1.13
2022-12-26T04:34:22.578Z,0.98
2022-12-26T04:35:46.918Z,1.01
2022-12-26T04:37:13.979Z,1.09
2022-12-26T04:38:38.373Z,1.22
2022-12-26T04:40:03.663Z,1.26
2022-12-26T04:41:26.574Z,1.33
2022-12-26T04:42:50.572Z,1.25
2022-12-26T04:44:08.277Z,1.13
2022-12-26T04:45:13.994Z,1.11
2022-12-26T04:46:19.971Z,1.18
2022-12-26T04:47:24.703Z,1.18
2022-12-26T04:48:45.659Z,1.27
2022-12-26T04:50:06.603Z,1.33
2022-12-26T04:51:08.866Z,1.32
2022-12-26T04:52:14.093Z,1.13
2022-12-26T04:53:17.375Z,0.97
2022-12-26T04:54:19.541Z,0.94
2022-12-26T04:55:21.649Z,0.90
2022-12-26T04:56:24.575Z,0.87
2022-12-26T04:57:26.865Z,0.95
2022-12-26T04:58:30.519Z,1.02
2022-12-26T04:59:33.455Z,0.99
2022-12-26T05:00:36.017Z,1.09
2022-12-26T05:01:57.328Z,1.19
2022-12-26T05:03:19.565Z,1.30
2022-12-26T05:04:40.602Z,1.26
2022-12-26T05:06:04.639Z,1.17
2022-12-26T05:07:31.836Z,1.18
2022-12-26T05:08:59.220Z,1.17
2022-12-26T05:10:01.967Z,1.19
2022-12-26T05:11:04.550Z,1.10
2022-12-26T05:12:08.836Z,1.07
2022-12-26T05:13:11.205Z,1.10
2022-12-26T05:14:13.141Z,1.14
2022-12-26T05:15:16.142Z,1.18
2022-12-26T05:16:37.261Z,1.10
2022-12-26T05:17:58.268Z,1.05
2022-12-26T05:19:18.678Z,1.13
2022-12-26T05:20:33.306Z,1.25
2022-12-26T05:21:54.258Z,1.20
2022-12-26T05:23:17.203Z,1.19
2022-12-26T05:24:38.323Z,1.20
2022-12-26T05:26:02.188Z,1.22
2022-12-26T05:27:23.221Z,1.17
2022-12-26T05:28:40.966Z,1.02
2022-12-26T05:29:43.242Z,1.03
2022-12-26T05:30:45.771Z,1.14
2022-12-26T05:31:47.869Z,1.18
2022-12-26T05:33:08.666Z,1.18
2022-12-26T05:34:13.134Z,1.19
2022-12-26T05:35:15.761Z,1.15
2022-12-26T05:36:22.040Z,1.09
2022-12-26T05:37:24.930Z,1.06
2022-12-26T05:38:28.009Z,1.05
2022-12-26T05:39:30.065Z,1.03
2022-12-26T05:40:32.381Z,1.03
2022-12-26T05:41:35.156Z,0.98
2022-12-26T05:42:37.124Z,1.02
2022-12-26T05:43:39.094Z,1.08
2022-12-26T05:44:41.067Z,1.14
2022-12-26T05:45:44.111Z,1.18
2022-12-26T05:46:46.496Z,1.18
2022-12-26T05:47:51.987Z,1.28
2022-12-26T05:48:54.972Z,1.35
2022-12-26T05:49:57.322Z,1.42
2022-12-26T05:51:01.306Z,1.47
2022-12-26T05:52:03.815Z,1.49
2022-12-26T05:53:06.264Z,1.58
2022-12-26T05:54:08.381Z,1.70
2022-12-26T05:55:10.592Z,1.72
2022-12-26T05:56:15.086Z,1.75
2022-12-26T05:57:17.233Z,1.81
2022-12-26T05:58:20.755Z,1.82
2022-12-26T05:59:23.307Z,1.83
2022-12-26T06:00:26.935Z,1.84
2022-12-26T06:01:30.084Z,1.86
2022-12-26T06:02:32.808Z,1.89
2022-12-26T06:03:35.939Z,1.96
2022-12-26T06:04:38.193Z,1.98
2022-12-26T06:05:40.416Z,2.00
2022-12-26T06:06:42.640Z,1.90
2022-12-26T06:07:44.847Z,1.89
2022-12-26T06:08:49.797Z,1.75
2022-12-26T06:09:53.106Z,1.59
2022-12-26T06:10:55.937Z,1.49
2022-12-26T06:11:58.063Z,1.52
2022-12-26T06:13:01.184Z,1.56
2022-12-26T06:14:04.249Z,1.57
2022-12-26T06:15:07.427Z,1.65
2022-12-26T06:16:13.239Z,1.71
2022-12-26T06:17:15.566Z,1.75
2022-12-26T06:18:17.678Z,1.81
2022-12-26T06:19:19.988Z,1.87
2022-12-26T06:20:22.280Z,1.86
2022-12-26T06:21:25.293Z,1.88
2022-12-26T06:22:29.653Z,1.87
2022-12-26T06:23:32.339Z,1.91
2022-12-26T06:24:34.549Z,1.92
2022-12-26T06:25:36.704Z,1.98
2022-12-26T06:26:40.795Z,1.98
2022-12-26T06:27:43.785Z,1.92
2022-12-26T06:28:47.075Z,1.91
2022-12-26T06:29:49.266Z,1.89
2022-12-26T06:30:52.368Z,1.97
2022-12-26T06:31:55.639Z,1.99
2022-12-26T06:32:58.383Z,2.01
2022-12-26T06:34:03.518Z,2.06
2022-12-26T06:35:07.264Z,2.06
2022-12-26T06:36:14.254Z,1.89
2022-12-26T06:37:16.907Z,1.86
2022-12-26T06:38:19.509Z,1.74
2022-12-26T06:39:22.338Z,1.75
2022-12-26T06:40:24.809Z,1.81
2022-12-26T06:41:27.023Z,1.83
2022-12-26T06:42:30.289Z,1.87
2022-12-26T06:43:32.957Z,1.92
2022-12-26T06:44:35.038Z,1.94
2022-12-26T06:45:37.125Z,1.99
2022-12-26T06:46:40.413Z,1.86
2022-12-26T06:47:43.736Z,1.94
2022-12-26T06:48:46.469Z,1.96
2022-12-26T06:49:48.684Z,1.94
2022-12-26T06:50:54.484Z,1.94
2022-12-26T06:51:56.735Z,1.97
2022-12-26T06:52:59.950Z,1.94
2022-12-26T06:54:03.391Z,1.90
2022-12-26T06:55:07.281Z,1.86
2022-12-26T06:56:13.492Z,1.85
2022-12-26T06:57:16.025Z,1.82
2022-12-26T06:58:20.415Z,1.69
2022-12-26T06:59:22.744Z,1.68
2022-12-26T07:00:26.211Z,1.66
2022-12-26T07:01:30.387Z,1.71
2022-12-26T07:02:33.261Z,1.70
2022-12-26T07:03:35.678Z,1.77
2022-12-26T07:04:37.764Z,1.83
2022-12-26T07:05:39.786Z,1.98
2022-12-26T07:06:43.454Z,2.04
2022-12-26T07:07:54.405Z,2.00
2022-12-26T07:09:05.561Z,2.00
2022-12-26T07:10:08.997Z,1.99
2022-12-26T07:11:15.799Z,2.03
2022-12-26T07:12:19.816Z,2.12
2022-12-26T07:13:21.863Z,2.19
2022-12-26T07:14:24.969Z,2.24
2022-12-26T07:15:27.128Z,2.21
2022-12-26T07:16:30.791Z,2.24
2022-12-26T07:17:32.915Z,2.26
2022-12-26T07:18:34.940Z,2.32
2022-12-26T07:19:37.071Z,2.34
2022-12-26T07:20:39.358Z,2.42
2022-12-26T07:21:42.925Z,2.38
2022-12-26T07:22:45.308Z,2.39
2022-12-26T07:23:48.065Z,2.42
2022-12-26T07:24:50.060Z,2.50
2022-12-26T07:25:51.894Z,2.50
2022-12-26T07:26:54.393Z,2.54
2022-12-26T07:27:56.284Z,2.57
2022-12-26T07:28:59.366Z,2.59
2022-12-26T07:30:02.571Z,2.63
2022-12-26T07:31:05.742Z,2.64
2022-12-26T07:32:07.994Z,2.63
2022-12-26T07:33:10.137Z,2.55
2022-12-26T07:34:12.475Z,2.49
2022-12-26T10:12:25.866Z,2.13
2022-12-26T10:13:34.762Z,2.01
2022-12-26T10:14:59.285Z,2.01
2022-12-26T10:16:20.397Z,2.04
2022-12-26T10:17:29.226Z,2.06
2022-12-26T10:18:47.234Z,2.08
2022-12-26T10:20:02.682Z,2.17
2022-12-26T10:21:12.069Z,2.21
2022-12-26T10:22:17.894Z,2.27
2022-12-26T10:23:39.060Z,2.32
2022-12-26T10:24:43.020Z,2.38
2022-12-26T10:25:54.785Z,2.47
2022-12-26T10:27:03.933Z,2.57
2022-12-26T10:28:25.029Z,2.67
2022-12-26T10:29:36.961Z,2.71
2022-12-26T10:30:43.054Z,2.78
2022-12-26T10:32:01.681Z,2.84
2022-12-26T10:33:07.615Z,2.88
2022-12-26T10:34:31.142Z,2.91
2022-12-26T10:35:44.396Z,2.94
2022-12-26T10:36:56.851Z,2.93
2022-12-26T10:38:11.926Z,2.88
2022-12-26T10:39:35.012Z,2.77
2022-12-26T10:40:41.521Z,2.81
2022-12-26T10:41:48.539Z,2.80
2022-12-26T10:42:58.474Z,2.91
2022-12-26T10:44:01.468Z,2.88
2022-12-26T10:45:13.828Z,2.88
2022-12-26T10:46:26.239Z,2.91
2022-12-26T10:47:37.541Z,2.77
2022-12-26T10:48:40.031Z,2.80
2022-12-26T10:49:45.642Z,2.66
2022-12-26T10:50:49.173Z,2.47
2022-12-26T10:51:54.146Z,2.40
2022-12-26T10:52:59.608Z,2.50
2022-12-26T10:54:01.681Z,2.50
2022-12-26T10:55:28.170Z,2.41
2022-12-26T10:56:14.783Z,2.53
2022-12-26T10:57:14.899Z,2.50
2022-12-26T10:58:32.176Z,2.26
2022-12-26T10:59:44.493Z,2.32
2022-12-26T11:00:47.525Z,2.42
2022-12-26T11:01:50.382Z,2.43
2022-12-26T11:03:08.047Z,2.47
2022-12-26T11:04:44.589Z,2.48
2022-12-26T11:05:48.874Z,2.50
2022-12-26T11:06:41.250Z,2.54
2022-12-26T11:07:50.271Z,2.56
2022-12-26T11:08:53.909Z,2.57
2022-12-26T11:10:00.344Z,2.58
2022-12-26T11:11:06.275Z,2.47
2022-12-26T11:12:27.265Z,2.37
2022-12-26T11:13:33.659Z,2.43
2022-12-26T11:14:39.464Z,2.35
2022-12-26T11:15:45.303Z,2.38
2022-12-26T11:16:49.750Z,2.34
2022-12-26T11:17:54.520Z,2.34
2022-12-26T11:18:57.550Z,2.32
2022-12-26T11:20:12.683Z,2.35
2022-12-26T11:21:24.936Z,2.41
2022-12-26T11:22:28.794Z,2.45
2022-12-26T11:23:33.750Z,2.47
2022-12-26T11:24:36.035Z,2.54
2022-12-26T11:25:48.225Z,2.64
2022-12-26T11:26:51.386Z,2.65
2022-12-26T11:27:58.247Z,2.62
2022-12-26T11:29:15.981Z,2.60
2022-12-26T11:30:28.021Z,2.60
2022-12-26T11:31:32.523Z,2.60
2022-12-26T11:32:35.355Z,2.66
2022-12-26T11:33:46.122Z,2.70
2022-12-26T11:34:51.028Z,2.70
2022-12-26T11:36:03.684Z,2.66
2022-12-26T11:37:09.011Z,2.64
2022-12-26T11:38:17.152Z,2.72
2022-12-26T11:39:25.731Z,2.74
2022-12-26T11:40:31.643Z,2.66
2022-12-26T11:41:41.610Z,2.61
2022-12-26T11:42:53.013Z,2.67
2022-12-26T11:43:58.329Z,2.62
2022-12-26T11:45:04.184Z,2.59
2022-12-26T11:46:06.748Z,2.58
2022-12-26T11:47:12.348Z,2.55
2022-12-26T11:48:20.882Z,2.55
2022-12-26T11:49:52.271Z,2.54
2022-12-26T11:50:54.787Z,2.58
2022-12-26T11:52:00.201Z,2.66
2022-12-26T11:53:06.863Z,2.59
2022-12-26T11:54:39.971Z,2.53
2022-12-26T11:55:42.385Z,2.53
2022-12-26T11:56:45.855Z,2.32
2022-12-26T11:58:10.555Z,2.22
2022-12-26T11:59:21.361Z,2.20
2022-12-26T12:00:25.117Z,2.22
2022-12-26T12:01:28.592Z,2.22
2022-12-26T12:02:32.172Z,2.19
2022-12-26T12:03:46.975Z,2.20
2022-12-26T12:04:49.321Z,2.21
2022-12-26T12:06:13.167Z,2.26
2022-12-26T12:07:48.571Z,2.32
2022-12-26T12:09:02.234Z,2.23
2022-12-26T12:10:14.010Z,2.32
2022-12-26T12:11:35.289Z,2.30
2022-12-26T12:12:43.994Z,2.38
2022-12-26T12:13:53.066Z,2.46
2022-12-26T12:15:04.701Z,2.42
2022-12-26T12:16:14.405Z,2.43
2022-12-26T12:17:37.892Z,2.45
2022-12-26T12:18:57.068Z,2.42
2022-12-26T12:20:02.926Z,2.29
2022-12-26T12:21:12.747Z,2.26
2022-12-26T12:22:39.665Z,2.23
2022-12-26T12:24:15.334Z,2.23
2022-12-26T12:25:45.530Z,2.26
2022-12-26T12:26:58.839Z,2.32
2022-12-26T12:28:02.163Z,2.32
2022-12-26T12:29:13.946Z,2.31
2022-12-26T12:30:26.224Z,2.31
2022-12-26T12:31:56.861Z,2.20
2022-12-26T12:33:36.255Z,2.28
2022-12-26T12:34:59.936Z,2.20
2022-12-26T12:36:09.171Z,2.00
2022-12-26T12:37:30.203Z,1.96
2022-12-26T12:38:56.515Z,2.02
2022-12-26T12:40:16.434Z,2.03
2022-12-26T12:41:28.378Z,2.04
2022-12-26T12:42:37.188Z,1.91
2022-12-26T12:44:02.590Z,1.96
2022-12-26T12:45:11.939Z,1.84
2022-12-26T12:46:29.269Z,1.89
2022-12-26T12:47:52.720Z,1.87
2022-12-26T12:49:03.289Z,1.91
2022-12-26T12:50:31.269Z,1.93
2022-12-26T12:51:56.992Z,1.77
2022-12-26T12:53:08.162Z,1.88
2022-12-26T12:54:44.525Z,1.95
2022-12-26T12:55:53.604Z,1.83
2022-12-26T12:57:09.298Z,1.69
2022-12-26T12:58:23.080Z,1.70
2022-12-26T13:00:00.500Z,1.72
2022-12-26T13:01:09.108Z,1.65
2022-12-26T13:02:24.651Z,1.71
2022-12-26T13:03:34.613Z,1.71
2022-12-26T13:04:43.806Z,1.72
2022-12-26T13:05:52.990Z,1.75
2022-12-26T13:08:34.515Z,1.87
2022-12-26T13:11:06.554Z,1.74
2022-12-26T13:12:21.207Z,1.63
2022-12-26T13:13:33.358Z,1.59
2022-12-26T13:14:47.959Z,1.51
2022-12-26T13:15:54.589Z,1.46
2022-12-26T13:17:05.347Z,1.56
2022-12-26T13:18:17.405Z,1.52
2022-12-26T13:20:42.233Z,1.71
2022-12-26T13:21:47.952Z,1.65
2022-12-26T13:23:15.444Z,1.70
2022-12-26T13:24:37.013Z,1.62
2022-12-26T13:25:42.704Z,1.52
2022-12-26T13:26:49.205Z,1.55
2022-12-26T13:27:54.582Z,1.53
2022-12-26T13:29:06.183Z,1.48
2022-12-26T13:30:15.755Z,1.41
2022-12-26T13:31:20.846Z,1.44
2022-12-26T13:32:29.092Z,1.37
2022-12-26T13:33:32.447Z,1.39
2022-12-26T13:34:35.840Z,1.33
2022-12-26T13:36:02.828Z,1.30
2022-12-26T13:37:05.143Z,1.24
2022-12-26T13:38:07.700Z,1.13
2022-12-26T13:39:29.948Z,1.27
2022-12-26T13:40:33.442Z,1.27
2022-12-26T13:41:55.783Z,1.34
2022-12-26T13:43:29.497Z,1.35
2022-12-26T13:44:34.315Z,1.40
2022-12-26T13:45:50.187Z,1.39
2022-12-26T13:46:56.745Z,1.43
2022-12-26T13:47:59.001Z,1.49
2022-12-26T13:49:01.530Z,1.35
2022-12-26T13:50:41.325Z,1.36
2022-12-26T13:51:50.068Z,1.42
2022-12-26T13:52:52.679Z,1.10
2022-12-26T13:54:02.252Z,1.09
2022-12-26T13:55:08.118Z,1.15
2022-12-26T13:56:21.230Z,1.10
2022-12-26T13:57:36.301Z,1.10
2022-12-26T13:59:06.628Z,1.18
2022-12-26T14:00:16.755Z,1.07
2022-12-26T14:01:29.996Z,1.10
2022-12-26T18:04:32.211Z,-0.65
2022-12-26T18:05:36.247Z,-0.78
2022-12-26T18:06:40.113Z,-0.78
2022-12-26T18:07:45.116Z,-0.81
2022-12-26T18:08:47.269Z,-0.75
2022-12-26T18:09:50.013Z,-0.68
2022-12-26T18:10:52.780Z,-0.63
2022-12-26T18:11:54.989Z,-0.58
2022-12-26T18:12:58.692Z,-0.52
2022-12-26T18:14:03.984Z,-0.43
2022-12-26T18:15:07.452Z,-0.31
2022-12-26T18:16:18.976Z,-0.28
2022-12-26T18:17:22.341Z,-0.30
2022-12-26T18:19:49.892Z,-0.34
2022-12-26T18:20:53.138Z,-0.30
2022-12-26T18:28:32.787Z,-0.10
2022-12-26T18:29:36.444Z,-0.26
2022-12-26T18:30:39.636Z,-0.37
2022-12-26T18:31:42.229Z,-0.30
2022-12-26T18:32:46.589Z,-0.22
2022-12-26T18:33:49.338Z,-0.28
2022-12-26T18:34:52.299Z,-0.28
2022-12-26T18:35:55.323Z,-0.28
2022-12-26T18:36:58.549Z,-0.29
2022-12-26T18:38:00.775Z,-0.28
2022-12-26T18:39:04.616Z,-0.34
2022-12-26T18:40:11.261Z,-0.31
2022-12-26T18:41:16.368Z,-0.26
2022-12-26T18:42:19.344Z,-0.30
2022-12-26T18:43:21.488Z,-0.22
2022-12-26T18:44:23.766Z,-0.29
2022-12-26T18:45:26.473Z,-0.27
2022-12-26T18:46:29.467Z,-0.23
2022-12-26T18:47:32.081Z,-0.23
2022-12-26T18:48:34.271Z,-0.23
2022-12-26T18:49:36.890Z,-0.28
2022-12-26T18:50:39.401Z,-0.24
2022-12-26T18:51:41.362Z,-0.16
2022-12-26T18:52:46.470Z,-0.05
2022-12-26T18:53:48.091Z,-0.08
2022-12-26T18:54:50.079Z,-0.17
2022-12-26T18:55:52.732Z,-0.23
2022-12-26T18:56:55.629Z,-0.18
2022-12-26T18:57:58.436Z,-0.20
2022-12-26T18:59:01.019Z,-0.20
2022-12-26T19:00:05.322Z,-0.24
2022-12-26T19:01:10.959Z,-0.20
2022-12-26T19:02:16.421Z,-0.13
2022-12-26T19:03:19.327Z,-0.15
2022-12-26T19:04:21.559Z,-0.22
2022-12-26T19:05:27.453Z,-0.26
2022-12-26T19:06:32.570Z,-0.28
2022-12-26T19:07:34.734Z,-0.25
2022-12-26T19:08:36.808Z,-0.24
2022-12-26T19:09:42.400Z,-0.24
2022-12-26T19:10:47.478Z,-0.23
2022-12-26T19:11:50.965Z,-0.24
2022-12-26T19:12:53.777Z,-0.29
2022-12-26T19:13:56.834Z,-0.34
2022-12-26T19:15:00.447Z,-0.34
2022-12-26T19:16:04.414Z,-0.31
2022-12-26T19:17:07.413Z,-0.28
2022-12-26T19:18:10.464Z,-0.25
2022-12-26T19:19:12.779Z,-0.28
2022-12-26T19:20:24.107Z,-0.25
2022-12-26T19:21:26.346Z,-0.20
2022-12-26T19:22:29.528Z,-0.23
2022-12-26T19:23:31.710Z,-0.20
2022-12-26T19:24:34.284Z,-0.08
2022-12-26T19:25:37.035Z,-0.04
2022-12-26T19:26:40.187Z,-0.06
2022-12-26T19:27:42.890Z,-0.12
2022-12-26T19:28:53.602Z,-0.12
2022-12-26T19:29:55.884Z,-0.13
2022-12-26T19:30:58.120Z,-0.05
2022-12-26T19:32:00.252Z,-0.05
2022-12-26T19:33:02.505Z,0.01
2022-12-26T19:34:04.923Z,-0.01
2022-12-26T19:35:07.767Z,-0.05
2022-12-26T19:36:11.651Z,-0.07
2022-12-26T19:37:13.865Z,-0.05
2022-12-26T19:38:15.962Z,-0.20
2022-12-26T19:39:18.463Z,-0.21
2022-12-26T19:40:24.934Z,-0.17
2022-12-26T19:41:27.082Z,-0.11
2022-12-26T19:42:31.855Z,-0.14
2022-12-26T19:43:35.437Z,-0.14
2022-12-26T19:44:37.702Z,0.22
2022-12-26T19:45:39.880Z,0.22
2022-12-26T19:46:42.879Z,0.26
2022-12-26T19:47:46.105Z,0.50
2022-12-26T19:48:49.972Z,0.80
2022-12-26T19:49:52.857Z,0.88
2022-12-26T19:50:55.190Z,0.73
2022-12-26T19:51:57.494Z,0.95
2022-12-26T19:53:00.578Z,1.10
2022-12-26T19:54:03.239Z,0.94
2022-12-26T19:55:08.945Z,0.76
2022-12-26T19:56:18.344Z,0.67
2022-12-26T19:57:22.717Z,0.72
2022-12-26T19:58:28.123Z,0.75
2022-12-26T19:59:30.911Z,0.73
2022-12-26T20:00:33.175Z,0.81
2022-12-26T20:01:36.200Z,0.60
2022-12-26T20:02:39.264Z,0.56
2022-12-26T20:03:42.356Z,0.62
2022-12-26T20:04:44.720Z,0.67
2022-12-26T20:05:46.807Z,0.83
2022-12-26T20:06:50.121Z,0.83
2022-12-26T20:07:52.338Z,0.73
2022-12-26T20:09:01.216Z,0.74
2022-12-26T20:10:04.479Z,0.91
2022-12-26T20:11:12.583Z,0.78
2022-12-26T20:12:15.331Z,0.78
2022-12-26T20:13:17.676Z,0.57
2022-12-26T20:14:23.509Z,0.94
2022-12-26T20:15:25.991Z,0.85
2022-12-26T20:17:03.957Z,0.66
2022-12-26T20:17:33.533Z,0.51
2022-12-26T20:18:38.199Z,0.58
2022-12-26T20:19:40.531Z,0.59
2022-12-26T20:20:42.770Z,0.56
2022-12-26T20:21:45.684Z,0.68
2022-12-26T20:22:53.007Z,0.73
2022-12-26T20:23:52.264Z,1.16
2022-12-26T20:24:55.436Z,1.54
2022-12-26T20:25:59.329Z,1.22
2022-12-26T20:27:04.532Z,1.41
2022-12-26T20:28:06.759Z,1.49
2022-12-26T20:29:09.493Z,1.82
2022-12-26T20:30:12.302Z,1.68
2022-12-26T20:31:17.484Z,1.68
2022-12-26T20:32:19.722Z,1.84
2022-12-26T20:33:21.816Z,1.54
2022-12-26T20:34:23.699Z,1.52
2022-12-26T20:35:26.454Z,1.63
2022-12-26T20:36:32.275Z,1.43
2022-12-26T20:37:34.763Z,1.12
2022-12-26T20:38:37.901Z,1.06
2022-12-26T20:39:42.193Z,0.94
2022-12-26T20:40:50.056Z,1.02
2022-12-26T20:41:50.012Z,0.89
2022-12-26T20:42:53.136Z,0.97
2022-12-26T20:43:56.323Z,0.96
2022-12-26T20:44:58.653Z,0.95
2022-12-26T20:46:09.958Z,0.82
2022-12-26T20:47:12.706Z,0.88
2022-12-26T20:48:14.940Z,0.78
2022-12-26T20:49:17.901Z,0.78
2022-12-26T20:50:23.076Z,0.73
2022-12-26T20:51:36.163Z,0.71
2022-12-26T20:52:34.287Z,0.57
2022-12-26T20:53:36.738Z,0.66
2022-12-26T20:54:39.281Z,0.75
2022-12-26T20:55:41.315Z,0.65
2022-12-26T20:56:46.951Z,0.55
2022-12-26T20:57:50.152Z,0.52
2022-12-26T20:58:53.092Z,0.55
2022-12-26T20:59:56.318Z,0.53
2022-12-26T21:01:03.878Z,0.52
2022-12-26T21:02:08.628Z,0.64
2022-12-26T21:03:14.514Z,0.63
2022-12-26T21:04:19.676Z,0.64
2022-12-26T21:05:22.331Z,0.67
2022-12-26T21:06:31.418Z,0.96
2022-12-26T21:07:34.867Z,0.92
2022-12-26T21:08:39.598Z,0.70
2022-12-26T21:09:46.440Z,0.68
2022-12-26T21:10:47.437Z,0.66
2022-12-26T21:11:49.681Z,0.64
2022-12-26T21:12:51.767Z,0.65
2022-12-26T21:13:57.032Z,0.61
2022-12-26T21:14:59.141Z,0.66
2022-12-26T21:16:10.459Z,0.64
2022-12-26T21:17:14.773Z,0.77
2022-12-26T21:18:17.388Z,0.77
2022-12-26T21:19:21.875Z,0.84
2022-12-26T21:20:24.879Z,0.69
2022-12-26T21:21:30.232Z,0.70
2022-12-26T21:22:33.344Z,0.55
2022-12-26T21:23:36.626Z,0.68
2022-12-26T21:24:39.089Z,0.62
2022-12-26T21:25:41.119Z,0.78
2022-12-26T21:26:45.501Z,0.72
2022-12-26T21:27:49.727Z,0.68
2022-12-26T21:30:07.260Z,0.83
2022-12-26T21:31:10.977Z,0.84
2022-12-26T21:32:13.216Z,0.75
2022-12-26T21:33:15.357Z,0.76
2022-12-26T21:34:20.139Z,0.88
2022-12-26T21:35:22.946Z,1.04
2022-12-26T21:36:27.356Z,1.07
2022-12-26T21:37:48.328Z,0.87
2022-12-26T21:38:52.631Z,0.86
2022-12-26T21:39:54.896Z,0.70
2022-12-26T21:40:57.695Z,0.61
2022-12-26T21:42:00.602Z,0.60
2022-12-26T21:43:03.213Z,0.60
2022-12-26T21:44:05.431Z,0.46
2022-12-26T21:45:09.000Z,0.65
2022-12-26T21:46:14.941Z,0.95
2022-12-26T21:47:17.396Z,0.95
2022-12-26T21:48:19.408Z,0.73
2022-12-26T21:49:21.365Z,0.60
2022-12-26T21:50:23.651Z,0.55
2022-12-26T21:51:25.957Z,0.47
2022-12-26T21:52:28.056Z,0.53
2022-12-26T21:53:30.033Z,0.51
2022-12-26T21:54:50.819Z,0.50
2022-12-26T21:55:53.106Z,0.50
2022-12-26T21:56:55.401Z,0.59
2022-12-26T21:58:01.109Z,0.83
2022-12-26T21:59:22.693Z,0.80
2022-12-26T22:00:27.001Z,0.77
2022-12-26T22:01:30.259Z,0.84
2022-12-26T22:02:53.742Z,0.67
2022-12-26T22:04:15.333Z,0.74
2022-12-26T22:05:20.558Z,0.74
2022-12-26T22:06:23.296Z,0.72